Time;durP1;ratioP1;P1;durP2;ratioP2;P2;SDS_P1;SDS_P2;PMS_P1;PMS_P2;Temp;Humidity;BMP_temperature;BMP_pressure;BME280_temperature;BME280_humidity;BME280_pressure;Samples;Min_cycle;Max_cycle;Signal;HPM_P1;HPM_P2
2022/07/19 00:00:01;;;;;;;7.13;4.30;;;18.70;52.50;;;;;;4984184;28;20809;-59
2022/07/19 00:02:26;;;;;;;4.17;3.77;;;18.70;52.60;;;;;;4983412;28;20180;-59
2022/07/19 00:04:52;;;;;;;4.17;3.77;;;18.60;52.60;;;;;;4986929;28;20447;-59
2022/07/19 00:07:18;;;;;;;6.97;4.00;;;18.60;52.70;;;;;;4981646;28;20299;-59
2022/07/19 00:09:43;;;;;;;9.60;3.73;;;18.50;52.80;;;;;;4987601;28;20182;-60
2022/07/19 00:12:12;;;;;;;6.40;4.00;;;18.50;53.00;;;;;;4977538;28;20209;-60
2022/07/19 00:14:38;;;;;;;5.30;4.43;;;18.40;53.20;;;;;;4986748;28;20597;-59
2022/07/19 00:17:03;;;;;;;4.90;4.30;;;18.40;53.30;;;;;;4984760;28;20464;-60
2022/07/19 00:19:29;;;;;;;3.90;3.60;;;18.30;53.20;;;;;;4984806;28;20269;-60
2022/07/19 00:21:55;;;;;;;5.70;3.63;;;18.30;53.30;;;;;;4982680;28;20173;-59
2022/07/19 00:24:20;;;;;;;5.03;4.00;;;18.20;53.50;;;;;;4987280;28;20197;-60
2022/07/19 00:26:46;;;;;;;10.10;3.90;;;18.20;53.60;;;;;;4988347;28;20209;-59
2022/07/19 00:29:11;;;;;;;5.50;4.20;;;18.20;53.70;;;;;;4985803;28;20177;-60
2022/07/19 00:31:37;;;;;;;7.47;4.00;;;18.20;53.80;;;;;;4985414;28;20307;-60
2022/07/19 00:34:03;;;;;;;8.30;3.90;;;18.10;53.70;;;;;;4982149;28;20181;-60
2022/07/19 00:36:28;;;;;;;7.60;3.77;;;18.10;53.70;;;;;;4981261;28;20687;-60
2022/07/19 00:38:54;;;;;;;4.53;4.13;;;18.00;53.80;;;;;;4982078;28;20188;-60
2022/07/19 00:41:20;;;;;;;4.60;3.93;;;18.00;54.10;;;;;;4983406;28;20264;-60
2022/07/19 00:43:45;;;;;;;5.43;4.00;;;18.00;54.10;;;;;;4983062;28;20177;-60
2022/07/19 00:46:16;;;;;;;6.47;4.00;;;17.90;54.20;;;;;;4977879;28;20204;-59
2022/07/19 00:48:42;;;;;;;6.73;4.47;;;17.90;54.40;;;;;;4985965;28;20212;-60
2022/07/19 00:51:09;;;;;;;6.90;3.70;;;17.90;54.60;;;;;;4983313;28;21145;-60
2022/07/19 00:53:37;;;;;;;4.50;4.10;;;17.80;54.40;;;;;;4991279;28;20736;-60
2022/07/19 00:56:05;;;;;;;8.23;4.37;;;17.80;54.50;;;;;;4985878;28;20471;-60
2022/07/19 00:58:32;;;;;;;6.40;4.77;;;17.70;54.60;;;;;;4995327;28;20426;-60
2022/07/19 01:00:59;;;;;;;4.67;4.23;;;17.70;55.10;;;;;;4984611;28;20494;-60
2022/07/19 01:03:25;;;;;;;6.80;4.03;;;17.60;55.10;;;;;;4995722;28;20455;-60
2022/07/19 01:05:52;;;;;;;7.00;4.20;;;17.60;55.30;;;;;;4992332;28;20420;-59
2022/07/19 01:08:17;;;;;;;6.53;4.27;;;17.60;55.40;;;;;;4985435;28;20464;-60
2022/07/19 01:10:43;;;;;;;5.97;4.30;;;17.50;55.40;;;;;;4990598;28;20475;-60
2022/07/19 01:13:11;;;;;;;5.80;4.07;;;17.50;55.50;;;;;;4998528;28;20558;-59
2022/07/19 01:15:39;;;;;;;8.33;4.37;;;17.50;55.70;;;;;;4985132;28;20541;-60
2022/07/19 01:18:05;;;;;;;4.73;4.23;;;17.50;55.80;;;;;;4985128;28;20458;-59
2022/07/19 01:20:30;;;;;;;5.27;4.53;;;17.40;55.90;;;;;;4995488;28;20790;-58
2022/07/19 01:22:56;;;;;;;4.90;4.40;;;17.40;55.90;;;;;;4989934;28;20172;-60
2022/07/19 01:25:23;;;;;;;5.60;4.73;;;17.40;56.00;;;;;;4986318;28;20213;-64
2022/07/19 01:27:49;;;;;;;4.60;4.10;;;17.30;56.20;;;;;;4987180;28;20226;-59
2022/07/19 01:30:17;;;;;;;7.30;4.40;;;17.30;56.20;;;;;;4991147;28;20432;-60
2022/07/19 01:32:43;;;;;;;5.27;4.60;;;17.30;56.30;;;;;;4991147;28;20223;-59
2022/07/19 01:35:09;;;;;;;5.30;4.00;;;17.20;56.40;;;;;;4990170;28;20981;-59
2022/07/19 01:37:35;;;;;;;5.13;4.63;;;17.20;56.60;;;;;;4987708;28;20288;-59
2022/07/19 01:40:06;;;;;;;5.90;4.57;;;17.20;56.70;;;;;;4991604;28;20412;-59
2022/07/19 01:42:32;;;;;;;8.70;4.60;;;17.10;56.80;;;;;;4988239;28;20427;-58
2022/07/19 01:44:58;;;;;;;6.13;4.47;;;17.10;57.00;;;;;;4983050;28;20477;-59
2022/07/19 01:47:24;;;;;;;5.17;4.67;;;17.10;57.40;;;;;;4986046;28;20343;-59
2022/07/19 01:49:50;;;;;;;5.17;4.67;;;17.00;57.40;;;;;;4993941;28;20230;-59
2022/07/19 01:52:16;;;;;;;5.10;4.60;;;17.00;57.40;;;;;;4987914;28;21180;-59
2022/07/19 01:54:41;;;;;;;4.80;4.13;;;16.90;57.40;;;;;;4985765;28;20464;-59
2022/07/19 01:57:07;;;;;;;5.23;4.70;;;16.90;57.50;;;;;;4978151;28;20201;-60
2022/07/19 01:59:36;;;;;;;9.70;4.73;;;16.80;57.70;;;;;;4988317;28;20896;-59
2022/07/19 02:02:02;;;;;;;7.17;4.47;;;16.80;57.90;;;;;;4988946;28;20228;-59
2022/07/19 02:04:27;;;;;;;6.60;4.70;;;16.70;58.20;;;;;;4990473;28;20459;-59
2022/07/19 02:06:53;;;;;;;5.33;4.63;;;16.70;58.40;;;;;;4984749;28;20564;-59
2022/07/19 02:09:18;;;;;;;4.47;4.07;;;16.60;59.00;;;;;;4990065;28;20178;-59
2022/07/19 02:11:44;;;;;;;5.83;4.20;;;16.60;58.80;;;;;;4991718;28;20229;-60
2022/07/19 02:14:10;;;;;;;6.97;4.43;;;16.50;59.00;;;;;;4983508;28;20205;-59
2022/07/19 02:16:37;;;;;;;9.00;4.90;;;16.50;59.20;;;;;;4986464;28;20233;-59
2022/07/19 02:19:03;;;;;;;5.43;4.63;;;16.50;59.10;;;;;;4987847;28;20587;-59
2022/07/19 02:21:29;;;;;;;7.27;5.17;;;16.40;59.30;;;;;;4980929;28;20495;-59
2022/07/19 02:23:55;;;;;;;5.40;4.60;;;16.40;59.70;;;;;;4989803;28;20432;-59
2022/07/19 02:26:21;;;;;;;6.33;5.73;;;16.40;60.50;;;;;;4992410;28;20673;-59
2022/07/19 02:28:46;;;;;;;5.90;4.40;;;16.40;60.20;;;;;;4995644;28;20231;-59
2022/07/19 02:31:12;;;;;;;5.90;5.03;;;16.40;60.20;;;;;;4991125;28;20559;-59
2022/07/19 02:33:37;;;;;;;6.43;5.07;;;16.40;60.30;;;;;;4984971;28;20182;-59
2022/07/19 02:36:03;;;;;;;5.50;5.00;;;16.40;60.30;;;;;;4988815;28;20697;-59
2022/07/19 02:38:30;;;;;;;7.00;4.80;;;16.40;60.50;;;;;;4993474;28;20226;-59
2022/07/19 02:40:55;;;;;;;5.83;4.77;;;16.40;60.60;;;;;;4987159;28;20165;-58
2022/07/19 02:43:21;;;;;;;5.43;4.87;;;16.30;60.80;;;;;;4988406;28;20801;-59
2022/07/19 02:45:46;;;;;;;8.20;6.40;;;16.30;60.90;;;;;;4986253;28;20181;-59
2022/07/19 02:48:12;;;;;;;5.77;5.17;;;16.20;61.20;;;;;;4984574;28;20205;-59
2022/07/19 02:50:38;;;;;;;5.90;4.80;;;16.20;61.40;;;;;;4984832;28;20666;-60
2022/07/19 02:53:04;;;;;;;7.00;5.07;;;16.10;61.60;;;;;;4989619;28;20591;-60
2022/07/19 02:55:30;;;;;;;5.83;5.23;;;16.10;62.20;;;;;;4985273;28;20248;-59
2022/07/19 02:57:56;;;;;;;6.43;4.93;;;16.00;62.80;;;;;;4986993;28;20198;-60
2022/07/19 03:00:22;;;;;;;8.17;5.27;;;16.00;63.10;;;;;;4978067;28;20435;-60
2022/07/19 03:02:47;;;;;;;7.27;5.53;;;15.90;63.30;;;;;;4980540;28;20706;-58
2022/07/19 03:05:13;;;;;;;7.13;4.93;;;15.90;63.50;;;;;;4988881;28;20227;-59
2022/07/19 03:07:39;;;;;;;7.87;5.50;;;15.90;63.90;;;;;;4988722;28;20280;-60
2022/07/19 03:10:05;;;;;;;8.00;5.50;;;15.80;64.40;;;;;;4995074;28;20678;-60
2022/07/19 03:12:31;;;;;;;7.60;5.60;;;15.80;64.50;;;;;;4987362;28;20186;-59
2022/07/19 03:14:57;;;;;;;5.33;4.63;;;15.80;64.80;;;;;;4983094;28;20463;-60
2022/07/19 03:17:22;;;;;;;7.17;5.13;;;15.70;65.00;;;;;;4984848;28;20394;-59
2022/07/19 03:19:48;;;;;;;6.10;5.17;;;15.70;65.30;;;;;;4987533;28;20453;-59
2022/07/19 03:22:14;;;;;;;6.10;5.33;;;15.70;65.40;;;;;;4988572;28;20179;-59
2022/07/19 03:24:39;;;;;;;5.87;5.30;;;15.70;65.20;;;;;;4983890;28;20184;-59
2022/07/19 03:27:05;;;;;;;10.83;4.53;;;15.70;65.10;;;;;;4989701;28;20232;-60
2022/07/19 03:29:30;;;;;;;14.30;5.50;;;15.70;65.00;;;;;;4988283;28;20232;-58
2022/07/19 03:31:57;;;;;;;5.60;5.10;;;15.60;65.00;;;;;;4978383;28;20212;-60
2022/07/19 03:34:23;;;;;;;16.60;6.40;;;15.60;65.30;;;;;;4990126;28;20200;-60
2022/07/19 03:36:48;;;;;;;5.87;5.27;;;15.50;66.10;;;;;;4974173;28;20805;-59
2022/07/19 03:39:15;;;;;;;6.20;5.13;;;15.40;66.20;;;;;;4989075;28;20213;-60
2022/07/19 03:41:41;;;;;;;7.87;5.40;;;15.40;66.90;;;;;;4983306;28;20464;-59
2022/07/19 03:44:06;;;;;;;6.60;5.57;;;15.30;67.30;;;;;;4982117;28;20209;-60
2022/07/19 03:46:32;;;;;;;9.53;5.40;;;15.30;67.70;;;;;;4987867;28;20196;-59
2022/07/19 03:48:58;;;;;;;5.83;5.03;;;15.20;68.00;;;;;;4989989;28;20205;-61
2022/07/19 03:51:23;;;;;;;5.57;4.97;;;15.20;68.30;;;;;;4989154;28;20264;-60
2022/07/19 03:53:50;;;;;;;5.83;5.33;;;15.20;68.50;;;;;;4968077;28;20188;-59
2022/07/19 03:56:17;;;;;;;9.00;5.27;;;15.20;68.70;;;;;;4981889;28;20682;-59
2022/07/19 03:58:43;;;;;;;7.10;6.30;;;15.20;68.60;;;;;;4982977;28;20809;-59
2022/07/19 04:01:09;;;;;;;6.00;5.40;;;15.20;69.10;;;;;;4971934;28;20440;-59
2022/07/19 04:03:40;;;;;;;7.40;5.47;;;15.20;69.10;;;;;;4981100;28;20440;-59
2022/07/19 04:06:06;;;;;;;9.60;5.60;;;15.20;69.10;;;;;;4970618;28;20941;-58
2022/07/19 04:08:34;;;;;;;7.93;5.70;;;15.20;69.20;;;;;;4976164;28;20555;-58
2022/07/19 04:11:00;;;;;;;6.50;5.17;;;15.20;69.30;;;;;;4973401;28;20546;-58
2022/07/19 04:13:26;;;;;;;6.00;5.40;;;15.10;69.70;;;;;;4982426;28;20487;-58
2022/07/19 04:15:51;;;;;;;7.43;5.70;;;15.10;70.20;;;;;;4978077;28;20975;-60
2022/07/19 04:18:17;;;;;;;8.30;5.93;;;15.10;70.30;;;;;;4979842;28;20182;-58
2022/07/19 04:20:43;;;;;;;7.20;6.03;;;15.10;70.60;;;;;;4985172;28;20185;-59
2022/07/19 04:23:08;;;;;;;7.53;5.70;;;15.10;70.40;;;;;;4979176;28;20185;-60
2022/07/19 04:25:34;;;;;;;8.07;6.03;;;15.20;70.90;;;;;;4983030;28;20185;-60
2022/07/19 04:28:01;;;;;;;6.97;6.00;;;15.20;71.20;;;;;;4976603;28;20227;-61
2022/07/19 04:30:27;;;;;;;7.03;5.40;;;15.30;70.80;;;;;;4980831;28;20185;-61
2022/07/19 04:32:53;;;;;;;6.73;5.53;;;15.30;70.70;;;;;;4980175;28;20451;-61
2022/07/19 04:35:19;;;;;;;7.17;5.87;;;15.30;70.50;;;;;;4980818;28;20211;-61
2022/07/19 04:37:45;;;;;;;9.03;6.07;;;15.30;69.90;;;;;;4982185;28;20200;-61
2022/07/19 04:40:11;;;;;;;6.00;5.40;;;15.40;69.40;;;;;;4977073;28;20180;-61
2022/07/19 04:42:36;;;;;;;8.13;6.30;;;15.30;69.20;;;;;;4979100;28;20189;-61
2022/07/19 04:45:03;;;;;;;8.23;6.37;;;15.30;69.60;;;;;;4975760;28;20455;-61
2022/07/19 04:47:29;;;;;;;9.93;4.90;;;15.30;70.90;;;;;;4977650;28;20570;-61
2022/07/19 04:49:54;;;;;;;9.50;6.37;;;15.30;71.20;;;;;;4971279;28;20441;-60
2022/07/19 04:52:20;;;;;;;8.80;6.00;;;15.40;71.20;;;;;;4976975;28;20173;-60
2022/07/19 04:54:46;;;;;;;17.27;6.37;;;15.50;71.10;;;;;;4978487;28;20204;-59
2022/07/19 04:57:13;;;;;;;8.63;5.93;;;15.50;70.30;;;;;;4981230;28;20224;-60
2022/07/19 04:59:39;;;;;;;8.37;6.00;;;15.60;70.00;;;;;;4987073;28;20576;-60
2022/07/19 05:02:05;;;;;;;9.23;6.83;;;15.60;70.10;;;;;;4986879;28;20447;-61
2022/07/19 05:04:30;;;;;;;7.40;6.23;;;15.70;69.50;;;;;;4988647;28;20424;-59
2022/07/19 05:06:56;;;;;;;11.53;6.40;;;15.80;69.20;;;;;;4970892;28;20703;-60
2022/07/19 05:09:29;;;;;;;10.30;6.90;;;15.90;69.80;;;;;;4981146;28;20201;-60
2022/07/19 05:11:55;;;;;;;8.03;5.97;;;15.90;68.60;;;;;;4979465;28;20188;-60
2022/07/19 05:14:21;;;;;;;6.60;6.00;;;16.00;68.30;;;;;;4988614;28;20460;-60
2022/07/19 05:16:49;;;;;;;7.83;5.90;;;16.10;68.30;;;;;;4988633;28;20555;-59
2022/07/19 05:19:15;;;;;;;11.30;7.10;;;16.10;67.70;;;;;;4987340;28;20314;-60
2022/07/19 05:21:41;;;;;;;6.70;6.00;;;16.20;67.50;;;;;;4978187;28;20816;-61
2022/07/19 05:24:06;;;;;;;6.50;5.90;;;16.30;67.20;;;;;;4977633;28;20432;-60
2022/07/19 05:26:33;;;;;;;7.30;5.40;;;16.40;66.30;;;;;;4982336;28;20197;-61
2022/07/19 05:28:59;;;;;;;10.40;5.73;;;16.40;66.00;;;;;;4980756;28;20273;-60
2022/07/19 05:31:25;;;;;;;7.90;5.40;;;16.50;66.50;;;;;;4983777;28;20937;-61
2022/07/19 05:33:51;;;;;;;6.40;5.03;;;16.60;66.20;;;;;;4989175;28;20432;-60
2022/07/19 05:36:17;;;;;;;8.90;5.97;;;16.70;65.60;;;;;;4973445;28;20962;-59
2022/07/19 05:38:43;;;;;;;9.40;5.23;;;16.70;64.30;;;;;;5005630;28;20454;-61
2022/07/19 05:41:10;;;;;;;11.30;5.63;;;16.70;65.00;;;;;;4983375;28;22540;-61
2022/07/19 05:43:37;;;;;;;6.07;5.47;;;16.80;64.70;;;;;;4990985;28;20674;-60
2022/07/19 05:46:03;;;;;;;5.37;4.87;;;16.90;64.60;;;;;;4988132;28;20444;-60
2022/07/19 05:48:29;;;;;;;6.70;5.17;;;17.00;64.60;;;;;;4992169;28;20456;-60
2022/07/19 05:50:56;;;;;;;8.53;5.47;;;17.10;64.50;;;;;;4994979;28;20444;-61
2022/07/19 05:53:21;;;;;;;6.57;5.70;;;17.20;64.20;;;;;;4983769;28;20814;-60
2022/07/19 05:55:47;;;;;;;7.23;5.23;;;17.40;64.10;;;;;;4981251;28;20469;-62
2022/07/19 05:58:13;;;;;;;6.47;5.80;;;17.50;63.60;;;;;;4981221;28;20636;-61
2022/07/19 06:01:17;;;;;;;8.00;5.77;;;17.60;63.30;;;;;;4982688;28;20611;-61
2022/07/19 06:03:24;;;;;;;6.37;5.37;;;17.60;62.90;;;;;;4988076;28;21126;-61
2022/07/19 06:05:50;;;;;;;7.33;6.00;;;17.70;62.60;;;;;;4990347;28;20455;-60
2022/07/19 06:08:16;;;;;;;8.23;5.03;;;17.80;62.30;;;;;;4994454;28;20180;-61
2022/07/19 06:10:41;;;;;;;9.40;6.20;;;17.90;61.40;;;;;;4997342;28;20260;-60
2022/07/19 06:13:07;;;;;;;7.83;6.10;;;17.90;60.90;;;;;;4990297;28;20180;-61
2022/07/19 06:15:32;;;;;;;7.63;5.00;;;18.10;60.70;;;;;;4981949;28;20204;-60
2022/07/19 06:17:58;;;;;;;10.83;5.17;;;18.10;60.60;;;;;;4989293;28;20240;-61
2022/07/19 06:20:23;;;;;;;6.07;5.47;;;18.30;60.30;;;;;;4991620;28;20177;-60
2022/07/19 06:22:49;;;;;;;10.73;5.50;;;18.40;59.80;;;;;;5008525;28;20183;-61
2022/07/19 06:25:15;;;;;;;6.57;5.37;;;18.40;59.50;;;;;;4987865;28;20189;-61
2022/07/19 06:27:40;;;;;;;8.77;4.93;;;18.60;59.90;;;;;;4990655;28;20740;-60
2022/07/19 06:30:06;;;;;;;6.80;5.37;;;18.70;59.80;;;;;;4984489;28;20188;-60
2022/07/19 06:32:32;;;;;;;9.70;5.47;;;18.80;59.60;;;;;;4980215;28;20197;-61
2022/07/19 06:34:57;;;;;;;15.00;5.73;;;18.90;59.60;;;;;;4984690;28;21465;-61
2022/07/19 06:37:23;;;;;;;10.10;5.60;;;19.10;59.20;;;;;;4986559;28;20205;-60
2022/07/19 06:39:49;;;;;;;8.27;6.10;;;19.20;58.80;;;;;;4977547;28;20679;-60
2022/07/19 06:42:14;;;;;;;8.67;5.47;;;19.20;58.30;;;;;;4980253;28;20753;-61
2022/07/19 06:44:40;;;;;;;7.50;5.70;;;19.40;58.20;;;;;;4986880;28;20187;-61
2022/07/19 06:47:05;;;;;;;7.50;5.07;;;19.50;58.00;;;;;;4988376;28;20209;-61
2022/07/19 06:49:31;;;;;;;9.00;6.47;;;19.70;57.70;;;;;;4985146;28;20195;-61
2022/07/19 06:51:57;;;;;;;15.40;6.73;;;19.80;57.60;;;;;;4982207;28;20845;-61
2022/07/19 06:54:22;;;;;;;8.93;6.40;;;20.00;57.20;;;;;;4983533;28;20863;-61
2022/07/19 06:56:48;;;;;;;11.27;6.60;;;20.30;57.30;;;;;;4983648;28;20690;-61
2022/07/19 06:59:14;;;;;;;9.53;6.60;;;20.40;56.60;;;;;;4982670;28;20288;-61
2022/07/19 07:01:39;;;;;;;11.97;6.17;;;20.60;56.10;;;;;;4980433;28;20184;-61
2022/07/19 07:04:05;;;;;;;9.20;4.50;;;20.70;55.40;;;;;;4985006;28;20192;-61
2022/07/19 07:06:30;;;;;;;13.60;8.03;;;20.90;55.00;;;;;;4984184;28;20675;-62
2022/07/19 07:08:56;;;;;;;9.83;5.30;;;21.00;54.60;;;;;;4986814;28;20204;-61
2022/07/19 07:11:22;;;;;;;5.40;4.63;;;21.10;54.30;;;;;;4983029;28;20166;-61
2022/07/19 07:13:47;;;;;;;10.40;4.50;;;21.30;54.00;;;;;;4989493;28;20180;-62
2022/07/19 07:16:13;;;;;;;7.10;4.80;;;21.50;53.60;;;;;;4985596;28;20294;-61
2022/07/19 07:18:38;;;;;;;7.90;4.80;;;21.60;53.20;;;;;;4987491;28;20770;-62
2022/07/19 07:21:04;;;;;;;4.73;3.23;;;21.90;52.50;;;;;;4979998;28;20185;-61
2022/07/19 07:23:30;;;;;;;4.63;3.87;;;22.10;51.20;;;;;;4982287;28;20181;-60
2022/07/19 07:25:56;;;;;;;4.13;2.60;;;22.40;50.00;;;;;;4981050;28;20600;-61
2022/07/19 07:28:21;;;;;;;3.90;2.80;;;22.60;49.20;;;;;;4980642;28;20670;-61
2022/07/19 07:30:47;;;;;;;5.80;3.03;;;22.90;48.10;;;;;;4986651;28;20527;-61
2022/07/19 07:33:12;;;;;;;3.53;2.90;;;23.10;47.20;;;;;;4985265;28;20196;-61
2022/07/19 07:35:38;;;;;;;4.07;3.67;;;23.30;46.20;;;;;;4988726;28;20204;-61
2022/07/19 07:38:03;;;;;;;4.87;3.10;;;23.50;45.00;;;;;;4982822;28;20678;-61
2022/07/19 07:40:29;;;;;;;8.60;2.87;;;23.70;44.30;;;;;;4981606;28;20178;-62
2022/07/19 07:42:55;;;;;;;4.10;2.97;;;23.90;44.00;;;;;;4983032;28;20185;-61
2022/07/19 07:45:20;;;;;;;6.60;2.83;;;24.10;43.50;;;;;;4983244;28;20185;-61
2022/07/19 07:47:46;;;;;;;2.73;2.47;;;24.20;43.00;;;;;;4985850;28;20199;-61
2022/07/19 07:50:11;;;;;;;4.17;2.60;;;24.40;42.60;;;;;;4983235;28;20714;-60
2022/07/19 07:52:37;;;;;;;4.73;2.90;;;24.50;42.30;;;;;;4989181;28;20852;-61
2022/07/19 07:55:04;;;;;;;4.27;2.57;;;24.70;41.90;;;;;;4978573;28;20577;-60
2022/07/19 07:57:30;;;;;;;2.43;2.13;;;24.90;41.30;;;;;;4978013;28;20202;-62
2022/07/19 07:59:55;;;;;;;2.97;2.10;;;25.00;40.90;;;;;;4990591;28;20515;-61
2022/07/19 08:02:21;;;;;;;5.07;2.87;;;25.20;40.70;;;;;;4968415;28;20211;-61
2022/07/19 08:04:46;;;;;;;3.53;2.30;;;25.30;40.10;;;;;;4975255;28;20195;-62
2022/07/19 08:07:12;;;;;;;6.00;2.70;;;25.40;39.30;;;;;;4983488;28;21155;-61
2022/07/19 08:09:38;;;;;;;5.90;2.70;;;25.50;38.20;;;;;;4994423;28;20192;-61
2022/07/19 08:12:04;;;;;;;3.33;2.10;;;25.70;37.20;;;;;;4981191;28;20968;-61
2022/07/19 08:14:30;;;;;;;7.93;1.90;;;25.80;36.30;;;;;;4976953;28;20196;-61
2022/07/19 08:16:55;;;;;;;6.20;2.47;;;26.00;35.90;;;;;;4976660;28;20200;-61
2022/07/19 08:19:21;;;;;;;4.17;2.40;;;26.10;35.60;;;;;;4983333;28;20183;-61
2022/07/19 08:21:46;;;;;;;3.47;2.80;;;26.20;35.40;;;;;;4976022;28;20201;-61
2022/07/19 08:24:12;;;;;;;4.13;2.53;;;26.30;35.20;;;;;;4984209;28;20662;-61
2022/07/19 08:26:38;;;;;;;5.63;2.27;;;26.40;35.00;;;;;;4977592;28;20211;-61
2022/07/19 08:29:03;;;;;;;4.23;2.70;;;26.50;34.70;;;;;;4984955;28;20184;-61
2022/07/19 08:31:29;;;;;;;7.97;2.63;;;26.60;33.80;;;;;;4977381;28;20192;-62
2022/07/19 08:33:54;;;;;;;6.87;2.73;;;26.70;34.40;;;;;;4979647;28;20578;-62
2022/07/19 08:36:20;;;;;;;3.50;2.87;;;26.80;34.60;;;;;;4983301;28;20226;-60
2022/07/19 08:38:46;;;;;;;3.33;2.23;;;26.90;33.90;;;;;;4981696;28;20538;-60
2022/07/19 08:41:14;;;;;;;9.03;2.80;;;27.00;33.10;;;;;;4979129;28;20219;-60
2022/07/19 08:43:40;;;;;;;4.13;3.00;;;27.00;33.20;;;;;;4981794;28;20234;-61
2022/07/19 08:46:06;;;;;;;4.87;2.73;;;27.10;33.00;;;;;;4974676;28;20928;-60
2022/07/19 08:48:36;;;;;;;4.03;2.67;;;27.20;33.20;;;;;;4974382;28;20212;-60
2022/07/19 08:51:02;;;;;;;3.80;2.90;;;27.30;32.70;;;;;;4982595;28;20825;-61
2022/07/19 08:53:33;;;;;;;5.27;2.87;;;27.40;32.10;;;;;;4973861;28;20185;-60
2022/07/19 08:55:59;;;;;;;5.40;3.00;;;27.50;32.60;;;;;;4970405;28;20205;-60
2022/07/19 08:58:25;;;;;;;7.77;3.60;;;27.60;33.00;;;;;;4982188;28;20181;-60
2022/07/19 09:00:51;;;;;;;5.10;3.00;;;27.60;32.60;;;;;;4981748;28;20561;-60
2022/07/19 09:03:17;;;;;;;5.60;3.80;;;27.80;32.30;;;;;;4978966;28;20181;-61
2022/07/19 09:05:43;;;;;;;8.33;3.00;;;27.80;32.00;;;;;;4975979;28;20332;-60
2022/07/19 09:08:10;;;;;;;6.93;3.40;;;27.90;32.30;;;;;;4983613;28;20207;-61
2022/07/19 09:10:42;;;;;;;3.43;2.80;;;28.00;32.50;;;;;;4973511;28;20188;-62
2022/07/19 09:13:09;;;;;;;7.90;3.30;;;28.10;32.40;;;;;;4985065;28;20295;-61
2022/07/19 09:15:47;;;;;;;9.60;3.63;;;28.20;32.00;;;;;;4982626;28;20204;-61
2022/07/19 09:18:27;;;;;;;28.07;5.10;;;28.30;31.80;;;;;;4980544;28;20212;-61
2022/07/19 09:20:58;;;;;;;4.37;3.50;;;28.40;32.40;;;;;;4981601;28;20176;-60
2022/07/19 09:23:25;;;;;;;4.80;3.60;;;28.50;32.20;;;;;;4982641;28;20179;-62
2022/07/19 09:26:04;;;;;;;4.00;3.00;;;28.60;32.00;;;;;;4981821;28;20187;-60
2022/07/19 09:28:34;;;;;;;3.87;3.50;;;28.70;31.80;;;;;;4977511;28;20187;-59
2022/07/19 09:31:02;;;;;;;5.53;3.60;;;28.80;31.50;;;;;;4979138;28;20271;-61
2022/07/19 09:33:30;;;;;;;7.25;3.58;;;29.00;31.70;;;;;;4980709;28;20255;-61
2022/07/19 09:36:00;;;;;;;7.93;3.50;;;29.00;31.30;;;;;;4991714;28;20271;-60
2022/07/19 09:38:34;;;;;;;4.03;3.63;;;29.10;31.10;;;;;;4977315;28;20200;-62
2022/07/19 09:41:17;;;;;;;4.00;3.60;;;29.30;31.40;;;;;;4983187;28;20184;-62
2022/07/19 09:43:59;;;;;;;4.72;3.88;;;29.50;31.40;;;;;;4978309;28;20605;-60
2022/07/19 09:46:28;;;;;;;7.22;3.72;;;29.60;31.20;;;;;;4979146;28;20228;-61
2022/07/19 09:48:54;;;;;;;6.93;3.63;;;29.70;30.90;;;;;;4991596;28;20631;-60
2022/07/19 09:51:20;;;;;;;6.60;3.42;;;29.80;30.10;;;;;;4984764;28;20191;-62
2022/07/19 09:53:47;;;;;;;3.80;3.33;;;29.90;29.80;;;;;;4979588;28;20185;-61
2022/07/19 09:56:13;;;;;;;13.70;4.07;;;30.00;29.80;;;;;;4978155;28;20603;-61
2022/07/19 09:58:41;;;;;;;12.48;4.15;;;30.10;30.50;;;;;;4995104;28;20184;-62
2022/07/19 10:01:07;;;;;;;12.40;4.15;;;30.20;30.10;;;;;;4989313;28;20237;-61
2022/07/19 10:03:33;;;;;;;7.20;4.45;;;30.30;30.40;;;;;;4981401;28;20193;-60
2022/07/19 10:05:59;;;;;;;6.20;3.85;;;30.40;30.30;;;;;;4973294;28;20193;-62
2022/07/19 10:08:25;;;;;;;6.90;3.78;;;30.60;30.40;;;;;;4978920;28;20281;-62
2022/07/19 10:10:51;;;;;;;13.40;3.78;;;30.70;30.00;;;;;;4983202;28;20190;-62
2022/07/19 10:13:17;;;;;;;7.95;4.43;;;30.70;29.50;;;;;;4976607;28;20186;-61
2022/07/19 10:15:47;;;;;;;8.23;4.03;;;30.80;29.30;;;;;;4984090;28;20235;-62
2022/07/19 10:18:20;;;;;;;7.13;3.63;;;30.80;29.50;;;;;;4963105;28;20219;-61
2022/07/19 10:20:47;;;;;;;7.63;3.90;;;30.90;30.10;;;;;;4975981;28;20175;-60
2022/07/19 10:23:13;;;;;;;9.27;3.67;;;31.00;30.00;;;;;;4986036;28;20258;-61
2022/07/19 10:25:40;;;;;;;19.20;4.05;;;31.10;29.90;;;;;;4981106;28;20290;-62
2022/07/19 10:28:25;;;;;;;5.20;3.92;;;31.30;29.20;;;;;;4977620;28;20229;-61
2022/07/19 10:30:50;;;;;;;10.30;3.42;;;31.40;29.50;;;;;;4978571;28;20839;-61
2022/07/19 10:33:28;;;;;;;7.32;4.10;;;31.50;29.40;;;;;;4981226;28;20196;-61
2022/07/19 10:35:54;;;;;;;9.30;4.25;;;31.60;29.00;;;;;;4974285;28;20323;-60
2022/07/19 10:38:19;;;;;;;5.13;3.75;;;31.70;29.30;;;;;;4988031;28;20755;-62
2022/07/19 10:40:47;;;;;;;8.25;4.32;;;31.80;29.20;;;;;;4983476;28;20513;-61
2022/07/19 10:43:18;;;;;;;8.75;3.78;;;31.90;28.70;;;;;;4983456;28;20180;-61
2022/07/19 10:46:03;;;;;;;6.05;3.80;;;32.00;28.50;;;;;;4976600;28;20184;-61
2022/07/19 10:48:36;;;;;;;3.70;3.40;;;32.00;29.00;;;;;;4983106;28;20212;-61
2022/07/19 10:51:02;;;;;;;5.40;3.63;;;32.20;29.00;;;;;;4982414;28;20280;-61
2022/07/19 10:53:40;;;;;;;7.05;3.75;;;32.30;29.40;;;;;;4984637;28;20271;-61
2022/07/19 10:56:16;;;;;;;4.50;3.65;;;32.40;28.50;;;;;;4978758;28;20762;-61
2022/07/19 10:58:54;;;;;;;9.35;4.75;;;32.50;28.10;;;;;;4983228;28;20649;-61
2022/07/19 11:01:21;;;;;;;10.95;4.40;;;32.50;27.40;;;;;;4980173;28;20177;-61
2022/07/19 11:03:48;;;;;;;7.28;4.00;;;32.60;27.30;;;;;;4980176;28;20189;-60
2022/07/19 11:06:25;;;;;;;6.35;3.90;;;32.80;27.20;;;;;;4977425;28;20209;-61
2022/07/19 11:08:56;;;;;;;9.13;3.90;;;32.80;26.90;;;;;;4983291;28;20471;-62
2022/07/19 11:11:24;;;;;;;6.97;3.72;;;32.90;27.10;;;;;;4981278;28;20271;-61
2022/07/19 11:13:54;;;;;;;8.50;3.83;;;32.90;26.90;;;;;;4983467;28;20185;-61
2022/07/19 11:16:23;;;;;;;8.50;3.95;;;33.00;27.00;;;;;;4981882;28;20958;-61
2022/07/19 11:18:49;;;;;;;7.35;3.70;;;33.10;26.90;;;;;;4984675;28;20183;-60
2022/07/19 11:21:15;;;;;;;5.15;3.58;;;33.10;27.40;;;;;;4972989;28;20173;-61
2022/07/19 11:23:43;;;;;;;12.82;3.75;;;33.20;27.00;;;;;;4980599;28;20186;-61
2022/07/19 11:26:09;;;;;;;9.45;3.60;;;33.30;26.90;;;;;;4972345;28;20812;-61
2022/07/19 11:28:35;;;;;;;12.13;3.92;;;33.40;26.70;;;;;;4965045;28;20180;-61
2022/07/19 11:31:21;;;;;;;8.75;3.95;;;33.50;27.50;;;;;;4975417;28;20640;-62
2022/07/19 11:33:49;;;;;;;10.25;3.70;;;33.60;27.40;;;;;;4975572;28;20196;-60
2022/07/19 11:36:16;;;;;;;11.40;3.33;;;33.70;26.90;;;;;;4968914;28;20219;-62
2022/07/19 11:38:46;;;;;;;5.40;3.58;;;33.80;27.30;;;;;;4980642;28;20187;-61
2022/07/19 11:41:19;;;;;;;9.55;3.38;;;33.80;27.40;;;;;;4974257;28;20194;-61
2022/07/19 11:44:06;;;;;;;12.20;3.88;;;33.90;27.70;;;;;;4977172;28;20606;-61
2022/07/19 11:46:34;;;;;;;12.50;4.00;;;34.00;27.20;;;;;;4975051;28;20482;-60
2022/07/19 11:49:01;;;;;;;6.05;3.20;;;34.00;27.70;;;;;;4974677;28;20560;-56
2022/07/19 11:51:28;;;;;;;8.65;3.30;;;34.10;27.50;;;;;;4981188;28;20217;-57
2022/07/19 11:53:56;;;;;;;10.10;3.47;;;34.10;25.80;;;;;;4980473;28;20672;-57
2022/07/19 11:56:28;;;;;;;7.13;3.03;;;34.00;26.50;;;;;;4979079;28;20583;-57
2022/07/19 11:58:56;;;;;;;7.45;3.40;;;34.10;27.00;;;;;;4982240;28;20224;-57
2022/07/19 12:01:34;;;;;;;6.00;2.65;;;34.20;26.90;;;;;;4981548;28;20920;-57
2022/07/19 12:04:08;;;;;;;7.43;3.55;;;34.40;27.30;;;;;;4980468;28;20263;-57
2022/07/19 12:06:39;;;;;;;8.88;3.65;;;34.60;27.50;;;;;;4980792;28;20777;-57
2022/07/19 12:09:07;;;;;;;9.30;3.30;;;34.70;27.40;;;;;;4981879;28;20220;-57
2022/07/19 12:11:51;;;;;;;11.50;3.90;;;34.80;27.20;;;;;;4976208;28;20188;-58
2022/07/19 12:14:24;;;;;;;5.75;3.38;;;34.80;27.70;;;;;;4979908;28;20189;-57
2022/07/19 12:17:08;;;;;;;4.75;3.35;;;34.80;27.40;;;;;;4982750;28;20748;-57
2022/07/19 12:19:34;;;;;;;9.73;3.45;;;34.90;27.30;;;;;;4981682;28;20553;-57
2022/07/19 12:22:00;;;;;;;9.27;4.13;;;34.90;27.30;;;;;;4981699;28;20229;-57
2022/07/19 12:24:28;;;;;;;9.95;3.13;;;35.00;27.00;;;;;;4981570;28;20192;-57
2022/07/19 12:27:08;;;;;;;6.18;3.42;;;35.20;27.80;;;;;;4980249;28;20200;-57
2022/07/19 12:29:37;;;;;;;9.27;3.90;;;35.30;27.50;;;;;;4980010;28;22560;-58
2022/07/19 12:32:13;;;;;;;9.40;3.22;;;35.50;26.70;;;;;;4975897;28;20197;-56
2022/07/19 12:34:42;;;;;;;7.03;3.53;;;35.60;25.70;;;;;;4979463;28;20204;-57
2022/07/19 12:37:36;;;;;;;16.05;3.83;;;35.60;25.80;;;;;;4977717;28;20674;-57
2022/07/19 12:40:12;;;;;;;15.63;3.92;;;35.60;26.10;;;;;;4977182;28;20213;-57
2022/07/19 12:42:47;;;;;;;5.00;3.60;;;35.80;25.80;;;;;;4975915;28;20935;-57
2022/07/19 12:45:23;;;;;;;11.32;3.60;;;35.90;26.00;;;;;;4976890;28;20193;-57